Terminal Aerodrome Forecast
Issued by NWS

Home | Current Version | Previous Version | Text Only | Print | Product List | Glossary On
Versions: 1 2 3 4 5 6 7 8 9 10 11 12 13 14 15 16 17 18 19 20 21 22 23 24 25 26 27 28 29 30 31 32 33 34 35
000
FTUS43 KDLH 282000 AAB
TAFHIB
TAF AMD
KHIB 282059Z 2821/2918 22005KT P6SM VCTS SCT060CB
      TEMPO 2821/2823 30009G15KT -TSRA BKN060CB
     FM282300 30009G15KT P6SM VCSH SCT060
     FM290100 36010G18KT P6SM -RA OVC015
     FM290600 05010G18KT 5SM -RA OVC009
     FM291400 06010KT P6SM OVC015=

USA.gov is the U.S. government's official web portal to all federal, state and local government web resources and services.